Time;durP1;ratioP1;P1;durP2;ratioP2;P2;SDS_P1;SDS_P2;PMS_P1;PMS_P2;Temp;Humidity;BMP_temperature;BMP_pressure;BME280_temperature;BME280_humidity;BME280_pressure;Samples;Min_cycle;Max_cycle;Signal;HPM_P1;HPM_P2
2022/04/15 00:00:04;;;;;;;4.60;4.40;;;;;;;10.60;65.16;100020.97;5111039;28;20202;-63
2022/04/15 00:02:31;;;;;;;3.80;3.60;;;;;;;10.61;65.41;100018.34;5111338;28;20281;-63
2022/04/15 00:04:59;;;;;;;4.33;4.03;;;;;;;10.62;65.56;100029.44;5111353;28;20688;-63
2022/04/15 00:07:26;;;;;;;3.83;3.63;;;;;;;10.60;65.49;100028.66;5111218;28;20253;-63
2022/04/15 00:09:53;;;;;;;4.13;3.93;;;;;;;10.56;66.01;100020.16;5111234;28;20199;-63
2022/04/15 00:12:28;;;;;;;4.33;4.07;;;;;;;10.57;66.00;100018.44;5111412;28;20229;-63
2022/04/15 00:14:56;;;;;;;3.77;3.57;;;;;;;10.57;66.63;100018.44;5111255;28;20641;-63
2022/04/15 00:17:23;;;;;;;4.57;4.37;;;;;;;10.58;66.27;100012.44;5111014;28;20282;-63
2022/04/15 00:19:50;;;;;;;4.90;4.43;;;;;;;10.43;66.05;100000.78;5110926;28;20281;-63
2022/04/15 00:22:17;;;;;;;3.93;3.73;;;;;;;10.51;66.44;100007.44;5111320;28;20191;-63
2022/04/15 00:24:44;;;;;;;4.33;4.13;;;;;;;10.48;66.20;100011.78;5114295;28;20637;-63
2022/04/15 00:27:11;;;;;;;4.50;4.30;;;;;;;10.47;66.05;100004.94;5115542;27;20205;-63
2022/04/15 00:29:40;;;;;;;4.77;4.33;;;;;;;10.45;65.64;100004.16;5115491;28;20289;-63
2022/04/15 00:32:07;;;;;;;4.77;4.33;;;;;;;10.44;65.41;100000.72;5114423;28;20252;-63
2022/04/15 00:34:35;;;;;;;5.13;4.73;;;;;;;10.41;65.65;100003.34;5114015;28;20229;-63
2022/04/15 00:37:02;;;;;;;4.87;4.57;;;;;;;10.39;65.64;100000.00;5115088;28;20285;-63
2022/04/15 00:39:29;;;;;;;4.60;4.30;;;;;;;10.39;66.17;99997.44;5114459;28;20308;-63
2022/04/15 00:41:58;;;;;;;4.60;4.23;;;;;;;10.39;66.31;100002.56;5114677;27;20194;-63
2022/04/15 00:44:25;;;;;;;5.53;4.80;;;;;;;10.33;66.79;100006.97;5114344;28;20281;-63
2022/04/15 00:46:53;;;;;;;5.57;5.10;;;;;;;10.29;67.54;100005.31;5114184;28;20199;-63
2022/04/15 00:49:20;;;;;;;6.63;5.00;;;;;;;10.24;67.89;100002.00;5114833;28;20571;-63
2022/04/15 00:51:50;;;;;;;5.10;4.80;;;;;;;10.10;68.44;100003.94;5114690;28;20194;-63
2022/04/15 00:54:20;;;;;;;6.20;4.87;;;;;;;9.94;69.00;100013.63;5114726;28;20218;-63
2022/04/15 00:56:50;;;;;;;4.80;4.50;;;;;;;9.88;69.39;100003.50;5114581;27;20190;-63
2022/04/15 00:59:19;;;;;;;5.60;5.20;;;;;;;9.79;69.22;99999.38;5114347;28;20394;-63
2022/04/15 01:01:47;;;;;;;5.47;4.97;;;;;;;9.74;69.92;100002.88;5113945;28;20195;-63
2022/04/15 01:04:18;;;;;;;6.63;5.17;;;;;;;9.63;70.22;100003.06;5112563;27;20683;-63
2022/04/15 01:06:48;;;;;;;5.83;4.70;;;;;;;9.56;70.64;100003.22;5112925;28;20502;-63
2022/04/15 01:09:17;;;;;;;5.03;4.57;;;;;;;9.59;70.43;100006.56;5112779;28;20190;-63
2022/04/15 01:11:45;;;;;;;5.10;4.80;;;;;;;9.57;69.92;99997.19;5113037;28;20191;-63
2022/04/15 01:14:14;;;;;;;4.30;3.90;;;;;;;9.59;69.93;99987.78;5112980;28;20194;-63
2022/04/15 01:16:41;;;;;;;5.03;4.77;;;;;;;9.54;70.11;99994.69;5113711;28;20666;-63
2022/04/15 01:19:08;;;;;;;5.90;5.33;;;;;;;9.57;69.81;99994.63;5114227;28;20222;-63
2022/04/15 01:21:39;;;;;;;4.97;4.63;;;;;;;9.56;70.05;99991.25;5114348;28;20662;-64
2022/04/15 01:24:08;;;;;;;5.67;5.27;;;;;;;9.59;69.85;99988.66;5112010;28;20191;-63
2022/04/15 01:26:35;;;;;;;5.90;5.30;;;;;;;9.57;69.89;99986.97;5114149;27;20198;-63
2022/04/15 01:29:04;;;;;;;5.93;5.30;;;;;;;9.46;70.41;99995.69;5113412;28;20281;-63
2022/04/15 01:31:31;;;;;;;5.87;5.10;;;;;;;9.26;70.39;99984.91;5113215;28;20199;-63
2022/04/15 01:33:59;;;;;;;5.00;4.70;;;;;;;9.22;71.45;99996.06;5113576;28;20206;-63
2022/04/15 01:36:27;;;;;;;4.80;4.50;;;;;;;9.07;71.97;99996.28;5114082;28;20191;-63
2022/04/15 01:38:57;;;;;;;4.73;4.43;;;;;;;8.95;72.66;99991.31;5113650;28;20701;-63
2022/04/15 01:41:25;;;;;;;4.60;4.37;;;;;;;8.88;72.76;99988.03;5113891;28;20194;-63
2022/04/15 01:43:53;;;;;;;5.00;4.60;;;;;;;8.89;72.78;99986.31;5113835;28;20199;-63
2022/04/15 01:46:20;;;;;;;4.83;4.43;;;;;;;8.80;73.00;99986.44;5113917;28;20293;-63
2022/04/15 01:48:46;;;;;;;4.67;4.27;;;;;;;8.71;73.88;99978.91;5114222;28;20574;-63
2022/04/15 01:51:13;;;;;;;4.37;4.07;;;;;;;8.67;74.35;99982.34;5114157;28;20730;-63
2022/04/15 01:53:40;;;;;;;5.03;4.73;;;;;;;8.68;74.10;99981.50;5113652;27;20198;-63
2022/04/15 01:56:07;;;;;;;5.33;5.03;;;;;;;8.71;74.19;99981.47;5113932;28;20302;-63
2022/04/15 01:58:36;;;;;;;4.27;3.97;;;;;;;8.79;73.95;99975.38;5113250;28;20198;-63
2022/04/15 02:01:03;;;;;;;5.03;4.73;;;;;;;8.76;74.07;99979.66;5113555;28;20206;-63
2022/04/15 02:03:30;;;;;;;4.53;4.23;;;;;;;8.77;73.40;99973.69;5114074;28;20559;-63
2022/04/15 02:05:57;;;;;;;5.00;4.57;;;;;;;8.80;73.29;99973.66;5113004;28;20202;-63
2022/04/15 02:08:24;;;;;;;5.73;5.03;;;;;;;8.79;73.75;99969.41;5113418;28;20623;-63
2022/04/15 02:10:51;;;;;;;12.03;5.53;;;;;;;8.75;73.75;99972.88;5113644;28;20289;-63
2022/04/15 02:13:17;;;;;;;12.10;5.20;;;;;;;8.76;73.55;99967.75;5113357;28;20239;-63
2022/04/15 02:15:46;;;;;;;6.23;5.63;;;;;;;8.78;73.24;99968.59;5113415;28;20686;-63
2022/04/15 02:18:13;;;;;;;5.53;5.13;;;;;;;8.81;73.53;99968.53;5113260;28;20289;-63
2022/04/15 02:20:40;;;;;;;5.77;4.67;;;;;;;8.83;73.74;99960.84;5113051;28;20267;-63
2022/04/15 02:23:07;;;;;;;5.60;5.13;;;;;;;8.81;73.36;99970.25;5112977;28;20199;-63
2022/04/15 02:25:34;;;;;;;6.43;4.83;;;;;;;8.81;73.12;99973.66;5111730;28;20210;-63
2022/04/15 02:28:01;;;;;;;4.57;4.27;;;;;;;8.80;73.75;99971.94;5112355;28;20281;-63
2022/04/15 02:30:28;;;;;;;5.00;4.50;;;;;;;8.71;74.34;99976.34;5113074;28;20675;-63
2022/04/15 02:32:56;;;;;;;5.37;5.07;;;;;;;8.63;74.35;99978.13;5113472;28;20199;-63
2022/04/15 02:35:23;;;;;;;11.87;7.63;;;;;;;8.35;75.16;99960.63;5112719;28;20579;-63
2022/04/15 02:37:50;;;;;;;16.20;9.13;;;;;;;8.35;75.73;99968.28;5112595;28;20320;-63
2022/04/15 02:40:17;;;;;;;15.60;9.40;;;;;;;8.19;76.20;99960.78;5112417;28;20290;-63
2022/04/15 02:42:44;;;;;;;16.13;7.83;;;;;;;8.21;76.16;99967.56;5113274;28;20206;-63
2022/04/15 02:45:11;;;;;;;11.30;7.00;;;;;;;8.24;75.87;99964.16;5112933;28;20195;-63
2022/04/15 02:47:40;;;;;;;8.77;7.10;;;;;;;8.13;76.27;99966.81;5112097;28;20290;-63
2022/04/15 02:50:09;;;;;;;7.70;6.83;;;;;;;8.03;76.87;99959.28;5112638;28;20783;-63
2022/04/15 02:52:36;;;;;;;10.23;7.97;;;;;;;7.92;77.84;99954.28;5112783;28;20658;-63
2022/04/15 02:55:04;;;;;;;11.33;8.33;;;;;;;7.79;78.68;99955.25;5111895;28;20717;-63
2022/04/15 02:57:30;;;;;;;9.33;7.93;;;;;;;7.71;78.77;99950.25;5110559;28;20255;-63
2022/04/15 02:59:58;;;;;;;10.13;8.03;;;;;;;7.79;78.76;99952.69;5112759;28;20221;-63
2022/04/15 03:02:25;;;;;;;18.90;11.20;;;;;;;7.68;79.38;99949.44;5112124;28;20267;-63
2022/04/15 03:04:52;;;;;;;14.50;8.80;;;;;;;7.70;78.83;99946.00;5112152;28;20282;-63
2022/04/15 03:07:21;;;;;;;8.77;7.77;;;;;;;7.68;79.46;99940.06;5112399;28;20195;-63
2022/04/15 03:09:47;;;;;;;8.53;7.00;;;;;;;7.69;79.26;99951.94;5112218;28;20285;-63
2022/04/15 03:12:14;;;;;;;6.50;6.00;;;;;;;7.67;79.50;99940.06;5111941;28;20290;-63
2022/04/15 03:14:41;;;;;;;6.23;5.63;;;;;;;7.63;78.88;99923.94;5110165;28;20195;-63
2022/04/15 03:17:08;;;;;;;5.50;4.80;;;;;;;7.78;78.92;99940.81;5110482;28;20191;-63
2022/04/15 03:19:35;;;;;;;4.80;4.50;;;;;;;7.80;78.43;99946.75;5110362;28;20201;-63
2022/04/15 03:22:02;;;;;;;6.27;5.70;;;;;;;7.79;78.16;99945.03;5110319;28;20289;-63
2022/04/15 03:24:30;;;;;;;6.53;5.93;;;;;;;7.71;78.63;99951.94;5109487;28;20873;-63
2022/04/15 03:26:57;;;;;;;6.20;5.70;;;;;;;7.62;79.33;99954.59;5105892;28;20202;-63
2022/04/15 03:29:24;;;;;;;6.20;5.70;;;;;;;7.66;79.22;99953.69;5111516;28;20289;-62
2022/04/15 03:31:51;;;;;;;5.07;4.73;;;;;;;7.70;79.38;99965.56;5111932;28;20194;-63
2022/04/15 03:34:18;;;;;;;5.40;4.77;;;;;;;7.76;79.34;99966.34;5111454;28;20199;-63
2022/04/15 03:36:45;;;;;;;4.83;4.43;;;;;;;7.79;78.86;99970.56;5111458;28;20314;-63
2022/04/15 03:39:12;;;;;;;4.70;4.40;;;;;;;7.83;78.65;99974.78;5111357;28;20218;-63
2022/04/15 03:41:41;;;;;;;4.80;4.40;;;;;;;7.85;78.52;99980.75;5111676;28;20282;-63
2022/04/15 03:44:08;;;;;;;5.03;4.63;;;;;;;7.87;78.17;99989.22;5111703;28;20631;-63
2022/04/15 03:46:35;;;;;;;4.10;3.80;;;;;;;7.89;78.21;99977.28;5111606;28;20285;-63
2022/04/15 03:49:03;;;;;;;4.83;4.43;;;;;;;7.85;77.78;99983.28;5111558;28;20286;-62
2022/04/15 03:51:30;;;;;;;5.40;5.00;;;;;;;7.82;77.42;99985.84;5111746;28;20298;-63
2022/04/15 03:53:57;;;;;;;6.37;5.53;;;;;;;7.78;77.40;99986.75;5110019;28;20289;-63
2022/04/15 03:56:24;;;;;;;6.83;6.17;;;;;;;7.78;77.86;99984.22;5111545;28;20317;-63
2022/04/15 03:58:52;;;;;;;8.70;6.97;;;;;;;7.71;78.12;99982.56;5111297;28;20190;-63
2022/04/15 04:01:19;;;;;;;7.53;6.20;;;;;;;7.76;78.53;99991.00;5111444;28;20202;-63
2022/04/15 04:03:46;;;;;;;10.27;6.83;;;;;;;7.76;78.99;99993.56;5110666;28;20290;-63
2022/04/15 04:06:13;;;;;;;6.83;6.23;;;;;;;7.77;79.21;99992.72;5111502;28;20202;-63
2022/04/15 04:08:40;;;;;;;7.07;6.43;;;;;;;7.74;79.71;100002.97;5111450;28;20701;-63
2022/04/15 04:11:07;;;;;;;6.67;6.13;;;;;;;7.74;79.47;99987.66;5111054;28;20281;-62
2022/04/15 04:13:34;;;;;;;6.23;5.73;;;;;;;7.72;79.70;99994.47;5111276;28;20730;-63
2022/04/15 04:16:02;;;;;;;7.67;5.50;;;;;;;7.73;79.43;99980.84;5110812;28;20586;-63
2022/04/15 04:18:29;;;;;;;7.23;5.67;;;;;;;7.73;79.80;99985.94;5110712;28;20195;-63
2022/04/15 04:20:55;;;;;;;6.53;6.13;;;;;;;7.76;80.14;99986.75;5110127;28;20202;-63
2022/04/15 04:23:22;;;;;;;5.03;4.63;;;;;;;7.74;80.58;99982.53;5109887;28;20750;-62
2022/04/15 04:25:49;;;;;;;6.10;5.60;;;;;;;7.64;80.88;99975.81;5110815;28;20663;-63
2022/04/15 04:28:16;;;;;;;5.43;4.97;;;;;;;7.80;80.80;99982.47;5110577;28;20199;-63
2022/04/15 04:30:43;;;;;;;5.93;5.53;;;;;;;7.84;80.92;99986.69;5110890;28;20281;-63
2022/04/15 04:33:11;;;;;;;5.20;4.83;;;;;;;7.89;81.81;99997.69;5109688;28;21636;-63
2022/04/15 04:35:39;;;;;;;5.50;5.10;;;;;;;8.00;81.83;99998.44;5105303;28;20599;-62
2022/04/15 04:38:06;;;;;;;5.40;5.10;;;;;;;8.08;81.56;99999.19;5108828;28;20309;-63
2022/04/15 04:40:33;;;;;;;5.83;5.43;;;;;;;8.19;81.71;99997.38;5106152;28;20596;-63
2022/04/15 04:43:00;;;;;;;5.53;5.13;;;;;;;8.40;81.32;100011.66;5107404;28;20666;-63
2022/04/15 04:45:27;;;;;;;5.30;4.67;;;;;;;8.63;80.77;100019.03;5109115;28;20205;-63
2022/04/15 04:47:55;;;;;;;4.87;4.57;;;;;;;8.69;78.84;100008.75;5110836;28;20194;-63
2022/04/15 04:50:24;;;;;;;5.13;4.70;;;;;;;8.99;77.76;100016.00;5110574;28;20236;-63
2022/04/15 04:52:51;;;;;;;5.77;4.40;;;;;;;9.19;77.03;100016.56;5111106;28;20202;-63
2022/04/15 04:55:19;;;;;;;5.53;4.17;;;;;;;9.33;76.39;100022.34;5110349;28;20198;-63
2022/04/15 04:57:46;;;;;;;4.60;4.20;;;;;;;9.52;77.26;100007.53;5110634;28;20209;-63
2022/04/15 05:00:15;;;;;;;5.07;4.77;;;;;;;9.72;76.71;100012.31;5110792;28;20252;-63
2022/04/15 05:02:43;;;;;;;4.30;4.10;;;;;;;9.76;75.52;99993.44;5110354;28;20280;-63
2022/04/15 05:05:10;;;;;;;4.93;4.63;;;;;;;9.99;75.62;100012.66;5110572;28;20578;-63
2022/04/15 05:07:39;;;;;;;4.20;3.90;;;;;;;10.08;75.56;99996.28;5108699;28;20305;-63
2022/04/15 05:10:07;;;;;;;4.57;4.27;;;;;;;10.19;74.73;100004.66;5101961;28;20198;-63
2022/04/15 05:12:34;;;;;;;5.03;4.73;;;;;;;10.33;76.44;100002.69;5114194;28;20702;-63
2022/04/15 05:15:01;;;;;;;5.40;4.90;;;;;;;10.50;76.95;100003.16;5114486;28;20423;-63
2022/04/15 05:17:28;;;;;;;4.40;4.10;;;;;;;10.67;77.02;100002.81;5114592;28;20297;-63
2022/04/15 05:19:54;;;;;;;4.07;3.77;;;;;;;10.84;77.79;99997.34;5113111;27;20216;-63
2022/04/15 05:22:22;;;;;;;3.97;3.77;;;;;;;10.98;78.81;99995.34;5113338;28;20305;-63
2022/04/15 05:24:52;;;;;;;4.00;3.63;;;;;;;11.16;75.39;100004.31;5114407;28;20579;-64
2022/04/15 05:27:19;;;;;;;2.90;2.60;;;;;;;11.34;74.69;100002.16;5114000;28;20194;-63
2022/04/15 05:29:46;;;;;;;4.20;3.17;;;;;;;11.52;73.22;100009.44;5113962;28;20203;-63
2022/04/15 05:32:13;;;;;;;3.53;3.33;;;;;;;11.70;72.03;100007.28;5114038;28;20199;-64
2022/04/15 05:34:42;;;;;;;3.67;3.37;;;;;;;11.91;71.94;100009.34;5112676;28;20289;-63
2022/04/15 05:37:09;;;;;;;3.57;2.43;;;;;;;12.15;71.07;100001.00;5110664;28;20214;-65
2022/04/15 05:39:36;;;;;;;2.83;2.63;;;;;;;12.40;70.51;100004.59;5109474;28;20231;-63
2022/04/15 05:42:05;;;;;;;3.37;3.07;;;;;;;12.61;67.92;100014.25;5111545;27;20206;-63
2022/04/15 05:44:32;;;;;;;2.80;2.60;;;;;;;12.82;67.73;100010.25;5110993;28;20774;-63
2022/04/15 05:46:59;;;;;;;4.00;2.53;;;;;;;12.87;70.00;99976.63;5111699;28;20697;-63
2022/04/15 05:49:26;;;;;;;3.37;2.80;;;;;;;13.24;68.88;100002.97;5111148;28;20289;-63
2022/04/15 05:51:53;;;;;;;2.73;2.63;;;;;;;13.45;66.79;99994.56;5111689;28;20272;-63
2022/04/15 05:54:20;;;;;;;3.43;3.23;;;;;;;13.66;66.30;100001.59;5111584;28;20213;-64
2022/04/15 05:56:47;;;;;;;3.33;3.23;;;;;;;13.88;65.67;100001.72;5111966;28;20301;-64
2022/04/15 05:59:15;;;;;;;3.27;3.17;;;;;;;14.15;65.12;100002.50;5112503;28;20582;-64
2022/04/15 06:01:42;;;;;;;3.40;3.20;;;;;;;14.38;60.71;100010.28;5109226;28;20305;-64
2022/04/15 06:04:09;;;;;;;3.30;3.10;;;;;;;14.57;58.90;100005.31;5111205;28;20289;-63
2022/04/15 06:06:36;;;;;;;3.50;3.33;;;;;;;14.85;57.26;100000.78;5109650;28;20298;-64
2022/04/15 06:09:02;;;;;;;3.57;3.27;;;;;;;15.03;55.88;100004.41;5109450;28;20202;-64
2022/04/15 06:11:29;;;;;;;4.07;3.80;;;;;;;15.36;55.81;100002.22;5109829;28;20715;-64
2022/04/15 06:13:57;;;;;;;4.27;3.97;;;;;;;15.59;55.63;99990.09;5110916;28;20209;-64
2022/04/15 06:16:31;;;;;;;3.33;3.03;;;;;;;15.87;55.38;100000.13;5110647;28;20242;-64
2022/04/15 06:18:58;;;;;;;3.20;3.00;;;;;;;16.16;52.21;99996.28;5110184;27;20235;-64
2022/04/15 06:21:26;;;;;;;3.27;3.17;;;;;;;16.22;51.28;99996.03;5109689;28;20647;-64
2022/04/15 06:23:53;;;;;;;3.80;3.43;;;;;;;16.43;55.17;100002.00;5109791;28;20552;-64
2022/04/15 06:26:20;;;;;;;4.20;3.90;;;;;;;16.68;50.94;99997.44;5109541;28;20209;-64
2022/04/15 06:28:47;;;;;;;3.27;3.10;;;;;;;16.96;50.79;100004.81;5107743;28;20719;-64
2022/04/15 06:31:14;;;;;;;3.37;3.17;;;;;;;17.26;52.20;100008.50;5106614;28;20211;-64
2022/04/15 06:33:43;;;;;;;4.47;3.23;;;;;;;17.63;52.33;100002.44;5112468;27;20294;-64
2022/04/15 06:36:09;;;;;;;9.63;3.57;;;;;;;17.82;48.95;100001.44;5110418;28;20254;-64
2022/04/15 06:38:36;;;;;;;4.43;4.03;;;;;;;17.98;47.66;99998.06;5112741;27;20678;-64
2022/04/15 06:41:03;;;;;;;2.57;2.37;;;;;;;18.19;49.05;99996.97;5112294;28;20717;-64
2022/04/15 06:43:30;;;;;;;3.03;2.87;;;;;;;18.17;47.25;99998.78;5109224;28;20242;-63
2022/04/15 06:45:57;;;;;;;2.70;2.60;;;;;;;18.26;47.61;99998.31;5108797;28;20294;-65
2022/04/15 06:48:24;;;;;;;3.33;2.50;;;;;;;18.41;46.29;99994.09;5109337;28;20570;-67
2022/04/15 06:50:54;;;;;;;2.50;2.40;;;;;;;18.61;47.03;99999.09;5112907;27;20742;-66
2022/04/15 06:53:23;;;;;;;2.53;2.37;;;;;;;18.62;45.52;99999.00;5107673;28;20195;-67
2022/04/15 06:55:50;;;;;;;5.03;2.67;;;;;;;18.66;46.84;99994.50;5111756;27;20194;-65
2022/04/15 06:58:17;;;;;;;2.47;2.37;;;;;;;18.68;46.05;99995.25;5111906;27;20293;-65
2022/04/15 07:00:44;;;;;;;2.10;2.00;;;;;;;18.57;44.65;99987.19;5109266;28;20211;-65
2022/04/15 07:03:12;;;;;;;2.90;2.70;;;;;;;18.74;42.83;99990.56;5110102;28;20655;-64
2022/04/15 07:05:39;;;;;;;2.33;2.23;;;;;;;18.82;42.25;99987.53;5109528;28;20202;-64
2022/04/15 07:08:10;;;;;;;2.27;2.17;;;;;;;18.86;42.57;99992.50;5110252;27;20709;-65
2022/04/15 07:10:38;;;;;;;4.93;2.67;;;;;;;18.77;42.63;99992.16;5109721;28;20282;-64
2022/04/15 07:13:06;;;;;;;4.00;2.40;;;;;;;18.82;42.49;99993.59;5110143;27;20666;-65
2022/04/15 07:15:33;;;;;;;2.53;2.40;;;;;;;18.91;43.63;99986.19;5110204;28;20291;-64
2022/04/15 07:18:02;;;;;;;2.80;2.07;;;;;;;19.07;44.87;99992.22;5109284;28;20222;-64
2022/04/15 07:20:30;;;;;;;2.80;2.50;;;;;;;19.25;45.84;99980.81;5110719;28;20751;-65
2022/04/15 07:22:58;;;;;;;2.30;2.20;;;;;;;19.34;44.76;99965.53;5109953;28;20281;-65
2022/04/15 07:25:27;;;;;;;2.40;2.20;;;;;;;19.44;44.54;99976.28;5110679;28;20702;-65
2022/04/15 07:27:55;;;;;;;1.93;1.83;;;;;;;19.46;41.52;99984.81;5110554;28;20206;-64
2022/04/15 07:30:22;;;;;;;2.83;2.63;;;;;;;19.62;40.81;99982.16;5109361;28;20261;-64
2022/04/15 07:32:49;;;;;;;2.50;2.17;;;;;;;19.76;40.64;99977.84;5109400;28;20586;-65
2022/04/15 07:35:16;;;;;;;2.27;2.17;;;;;;;20.01;39.63;99969.41;5110954;27;20602;-66
2022/04/15 07:37:43;;;;;;;2.13;2.03;;;;;;;20.14;39.26;99972.97;5109724;27;20712;-65
2022/04/15 07:40:12;;;;;;;2.00;1.90;;;;;;;20.17;39.64;99971.94;5103930;28;20227;-64
2022/04/15 07:42:40;;;;;;;2.53;2.43;;;;;;;20.29;40.87;99971.25;5107610;28;20662;-64
2022/04/15 07:45:08;;;;;;;4.53;2.20;;;;;;;20.26;41.43;99966.16;5109489;28;20586;-65
2022/04/15 07:47:35;;;;;;;2.90;2.67;;;;;;;20.52;40.58;99972.44;5108232;27;20202;-65
2022/04/15 07:50:02;;;;;;;2.20;2.10;;;;;;;20.76;40.00;99976.94;5110445;27;20218;-65
2022/04/15 07:52:32;;;;;;;2.30;2.20;;;;;;;20.97;39.43;99973.94;5109114;27;20594;-65
2022/04/15 07:54:59;;;;;;;2.47;2.37;;;;;;;21.16;37.40;99969.25;5111582;27;20210;-65
2022/04/15 07:57:27;;;;;;;1.90;1.80;;;;;;;21.26;36.22;99950.28;5108381;28;20232;-65
2022/04/15 07:59:56;;;;;;;2.20;2.10;;;;;;;21.45;36.56;99949.91;5108801;28;20206;-66
2022/04/15 08:02:23;;;;;;;2.20;2.10;;;;;;;21.50;35.94;99958.28;5108167;28;20763;-65
2022/04/15 08:04:51;;;;;;;1.87;1.77;;;;;;;21.55;37.37;99961.38;5110930;28;20195;-65
2022/04/15 08:07:18;;;;;;;2.43;2.23;;;;;;;21.63;38.33;99955.69;5110974;28;20660;-65
2022/04/15 08:09:45;;;;;;;1.90;1.80;;;;;;;21.75;39.37;99947.84;5109825;28;20298;-65
2022/04/15 08:12:12;;;;;;;1.83;1.73;;;;;;;21.96;36.19;99956.91;5109080;28;20212;-65
2022/04/15 08:14:39;;;;;;;2.07;1.97;;;;;;;22.25;36.38;99951.44;5108858;28;20291;-65
2022/04/15 08:17:08;;;;;;;2.17;2.07;;;;;;;22.41;36.09;99950.28;5110813;28;20220;-65
2022/04/15 08:19:35;;;;;;;2.43;2.23;;;;;;;22.36;36.11;99954.97;5110219;28;20204;-65
2022/04/15 08:22:03;;;;;;;2.00;1.77;;;;;;;22.24;36.29;99954.97;5110577;28;20573;-66
2022/04/15 08:24:29;;;;;;;2.20;2.10;;;;;;;21.86;35.45;99940.16;5111564;28;20199;-65
2022/04/15 08:26:57;;;;;;;2.00;1.90;;;;;;;21.51;36.77;99949.50;5111284;28;20192;-66
2022/04/15 08:29:24;;;;;;;1.90;1.80;;;;;;;21.50;37.83;99942.63;5109829;27;20288;-67
2022/04/15 08:31:51;;;;;;;1.73;1.60;;;;;;;21.77;37.46;99935.56;5110189;28;20203;-66
2022/04/15 08:34:19;;;;;;;2.20;2.10;;;;;;;21.62;36.08;99930.50;5111413;27;20215;-67
2022/04/15 08:36:46;;;;;;;2.20;2.10;;;;;;;21.54;36.06;99925.81;5110009;28;20219;-65
2022/04/15 08:39:13;;;;;;;2.17;2.07;;;;;;;21.72;35.94;99921.97;5109934;28;20710;-66
2022/04/15 08:41:43;;;;;;;3.40;1.90;;;;;;;21.35;36.92;99922.78;5112829;28;20199;-65
2022/04/15 08:44:10;;;;;;;3.00;1.90;;;;;;;21.45;36.39;99921.22;5108233;27;20250;-67
2022/04/15 08:46:38;;;;;;;2.10;2.00;;;;;;;21.53;37.10;99899.81;5114760;28;20282;-64
2022/04/15 08:49:07;;;;;;;2.23;2.10;;;;;;;21.63;37.86;99901.72;5116510;27;20260;-64
2022/04/15 08:51:36;;;;;;;5.90;2.00;;;;;;;21.85;35.83;99904.53;5115083;27;20295;-65
2022/04/15 08:54:06;;;;;;;2.07;1.97;;;;;;;22.07;34.77;99900.50;5114983;28;20202;-64
2022/04/15 08:56:33;;;;;;;2.17;2.07;;;;;;;22.35;36.32;99893.22;5115196;27;20563;-62
2022/04/15 08:59:00;;;;;;;2.00;1.90;;;;;;;22.55;36.44;99904.88;5114759;28;20640;-62
2022/04/15 09:01:28;;;;;;;2.10;2.00;;;;;;;22.38;33.75;99905.22;5109696;27;20206;-62
2022/04/15 09:03:56;;;;;;;3.00;2.90;;;;;;;22.15;34.23;99887.72;5113669;28;20288;-62
2022/04/15 09:06:29;;;;;;;1.87;1.70;;;;;;;22.37;35.40;99882.66;5114454;27;20205;-61
2022/04/15 09:09:02;;;;;;;2.63;2.27;;;;;;;22.51;35.29;99879.91;5110889;27;20266;-62
2022/04/15 09:11:34;;;;;;;2.10;2.00;;;;;;;22.62;34.31;99879.94;5112419;28;20216;-61
2022/04/15 09:14:10;;;;;;;3.83;2.23;;;;;;;22.57;35.04;99873.41;5113035;28;20203;-62
2022/04/15 09:16:41;;;;;;;2.07;1.97;;;;;;;22.68;35.28;99871.69;5113540;28;20197;-62
2022/04/15 09:19:10;;;;;;;2.93;1.83;;;;;;;22.86;34.47;99869.53;5110655;28;20712;-61
2022/04/15 09:21:38;;;;;;;2.80;2.07;;;;;;;22.89;34.14;99866.69;5115286;27;20206;-61
2022/04/15 09:24:08;;;;;;;2.30;2.20;;;;;;;22.87;34.13;99861.59;5111786;27;20212;-62
2022/04/15 09:26:38;;;;;;;2.73;1.87;;;;;;;23.01;33.97;99855.31;5113681;28;20205;-61
2022/04/15 09:29:05;;;;;;;2.00;1.90;;;;;;;23.23;35.91;99857.19;5111317;28;20225;-62
2022/04/15 09:31:31;;;;;;;2.27;2.17;;;;;;;23.29;34.75;99856.72;5113040;27;20288;-62
2022/04/15 09:33:59;;;;;;;2.07;1.90;;;;;;;23.41;33.72;99850.59;5113758;27;20203;-63
2022/04/15 09:36:28;;;;;;;3.03;1.80;;;;;;;23.70;33.65;99845.75;5113271;28;20593;-62
2022/04/15 09:39:01;;;;;;;1.93;1.83;;;;;;;23.75;33.61;99852.28;5111658;28;20250;-63
2022/04/15 09:41:30;;;;;;;2.07;1.90;;;;;;;23.90;33.76;99843.25;5112090;28;20195;-63
2022/04/15 09:43:58;;;;;;;1.80;1.70;;;;;;;23.80;32.69;99828.38;5112723;28;20199;-63
2022/04/15 09:46:27;;;;;;;3.40;2.10;;;;;;;23.57;32.37;99829.31;5113221;27;20693;-63
2022/04/15 09:49:15;;;;;;;3.00;1.80;;;;;;;23.70;34.70;99825.66;5113490;28;20566;-62
2022/04/15 09:51:44;;;;;;;2.63;2.43;;;;;;;23.49;32.89;99822.03;5107924;28;20286;-63
2022/04/15 09:54:20;;;;;;;2.00;1.90;;;;;;;23.31;31.81;99820.81;5109262;27;20666;-63
2022/04/15 09:56:50;;;;;;;1.97;1.87;;;;;;;23.40;33.73;99817.53;5112359;28;20570;-62
2022/04/15 09:59:17;;;;;;;2.07;1.97;;;;;;;23.36;34.60;99816.88;5112033;28;20563;-63
2022/04/15 10:01:46;;;;;;;2.13;2.03;;;;;;;23.12;34.57;99812.69;5109071;27;20300;-63
2022/04/15 10:04:13;;;;;;;2.07;1.90;;;;;;;23.04;34.27;99799.38;5110716;28;20554;-63
2022/04/15 10:06:42;;;;;;;2.90;2.20;;;;;;;23.13;34.56;99814.38;5110204;28;20226;-63
2022/04/15 10:09:11;;;;;;;2.40;2.20;;;;;;;23.36;34.70;99805.63;5107908;28;21621;-63
2022/04/15 10:11:42;;;;;;;1.43;1.43;;;;;;;23.43;31.06;99796.34;5107456;28;20715;-62
2022/04/15 10:14:11;;;;;;;2.00;1.90;;;;;;;23.50;32.11;99797.56;5108385;28;20195;-62
2022/04/15 10:16:39;;;;;;;2.37;2.27;;;;;;;23.33;31.87;99774.41;5111404;27;20212;-63
2022/04/15 10:19:07;;;;;;;2.00;1.90;;;;;;;23.51;30.69;99786.97;5110251;28;20218;-62
2022/04/15 10:21:37;;;;;;;2.07;1.93;;;;;;;23.72;31.57;99787.06;5110454;28;20199;-62
2022/04/15 10:24:08;;;;;;;2.70;1.47;;;;;;;23.85;31.64;99776.47;5110805;28;20285;-62
2022/04/15 10:26:37;;;;;;;2.30;1.73;;;;;;;23.88;33.83;99769.22;5113429;27;20212;-63
2022/04/15 10:29:06;;;;;;;1.90;1.80;;;;;;;23.93;32.60;99769.69;5111416;28;20594;-63
2022/04/15 10:31:42;;;;;;;1.80;1.70;;;;;;;23.49;33.59;99756.63;5111643;28;20198;-63
2022/04/15 10:34:11;;;;;;;4.30;2.40;;;;;;;23.48;34.09;99754.97;5109482;28;20678;-63
2022/04/15 10:36:38;;;;;;;6.33;2.13;;;;;;;23.67;33.33;99751.75;5112655;27;20250;-63
2022/04/15 10:39:16;;;;;;;2.00;1.90;;;;;;;23.59;32.72;99739.25;5111192;27;20215;-62
2022/04/15 10:42:04;;;;;;;3.10;2.20;;;;;;;23.28;33.70;99745.19;5111218;27;20736;-63
2022/04/15 10:44:37;;;;;;;2.37;2.17;;;;;;;23.18;32.51;99745.03;5111018;28;20287;-63
2022/04/15 10:47:12;;;;;;;3.30;1.70;;;;;;;23.31;32.72;99739.72;5110419;28;20214;-64
2022/04/15 10:49:41;;;;;;;5.43;1.77;;;;;;;23.27;32.30;99738.25;5110870;28;20588;-64
2022/04/15 10:52:22;;;;;;;2.23;1.83;;;;;;;23.19;31.54;99730.19;5114647;28;20210;-64
2022/04/15 10:54:52;;;;;;;1.97;1.77;;;;;;;23.22;31.50;99722.09;5115435;28;20205;-64
2022/04/15 10:57:21;;;;;;;2.07;1.87;;;;;;;23.39;33.22;99722.44;5115544;27;20224;-64
2022/04/15 11:02:45;;;;;;;3.10;2.20;;;;;;;23.14;32.01;99711.38;5115291;28;20301;-65
2022/04/15 11:05:14;;;;;;;3.10;1.80;;;;;;;23.27;33.85;99712.09;5111416;28;20247;-63
2022/04/15 11:07:50;;;;;;;1.93;1.83;;;;;;;23.17;32.46;99705.91;5107505;28;20637;-63
2022/04/15 11:10:37;;;;;;;2.77;1.90;;;;;;;23.30;32.99;99706.63;5115017;27;20264;-63
2022/04/15 11:13:04;;;;;;;2.13;2.03;;;;;;;23.41;31.72;99704.06;5113155;28;20233;-63
2022/04/15 11:15:53;;;;;;;2.23;2.10;;;;;;;23.49;33.96;99701.66;5111996;28;20191;-64
2022/04/15 11:18:22;;;;;;;1.93;1.83;;;;;;;23.64;33.42;99695.25;5109968;28;20701;-63
2022/04/15 11:20:50;;;;;;;2.53;2.33;;;;;;;23.80;33.08;99694.84;5111900;28;20574;-64
2022/04/15 11:23:18;;;;;;;1.87;1.80;;;;;;;23.59;31.65;99697.38;5112392;28;20230;-64
2022/04/15 11:25:46;;;;;;;2.03;1.93;;;;;;;23.68;32.69;99686.19;5113693;27;20283;-64
2022/04/15 11:28:19;;;;;;;1.67;1.57;;;;;;;23.63;30.53;99682.25;5112337;28;20608;-64
2022/04/15 11:30:49;;;;;;;2.13;2.00;;;;;;;23.62;30.95;99684.03;5111054;28;20210;-64
2022/04/15 11:33:17;;;;;;;2.97;2.83;;;;;;;23.78;32.31;99681.88;5101398;28;20210;-65
2022/04/15 11:35:45;;;;;;;2.30;2.20;;;;;;;23.83;31.09;99679.72;5099682;28;20211;-64
2022/04/15 11:38:12;;;;;;;2.13;1.97;;;;;;;23.92;31.69;99663.28;5105795;28;20313;-64
2022/04/15 11:40:43;;;;;;;2.27;2.17;;;;;;;24.22;33.05;99674.84;5109646;28;20651;-67